sensor_id;sensor_type;location;lat;lon;timestamp;temperature;humidity
12911;DHT22;6523;49.758;6.120;2023-08-12T00:00:16;21.10;99.90
12911;DHT22;6523;49.758;6.120;2023-08-12T00:02:43;20.90;99.90
12911;DHT22;6523;49.758;6.120;2023-08-12T00:05:09;20.80;99.90
12911;DHT22;6523;49.758;6.120;2023-08-12T00:07:36;20.90;99.90
12911;DHT22;6523;49.758;6.120;2023-08-12T00:10:03;21.00;99.90
12911;DHT22;6523;49.758;6.120;2023-08-12T00:12:31;20.90;99.90
12911;DHT22;6523;49.758;6.120;2023-08-12T00:14:57;20.80;99.90
12911;DHT22;6523;49.758;6.120;2023-08-12T00:17:22;20.70;99.90
12911;DHT22;6523;49.758;6.120;2023-08-12T00:19:48;20.70;99.90
12911;DHT22;6523;49.758;6.120;2023-08-12T00:22:14;20.50;99.90
12911;DHT22;6523;49.758;6.120;2023-08-12T00:24:39;20.40;99.90
12911;DHT22;6523;49.758;6.120;2023-08-12T00:27:06;20.40;99.90
12911;DHT22;6523;49.758;6.120;2023-08-12T00:29:32;20.30;99.90
12911;DHT22;6523;49.758;6.120;2023-08-12T00:31:58;20.20;99.90
12911;DHT22;6523;49.758;6.120;2023-08-12T00:34:23;20.20;99.90
12911;DHT22;6523;49.758;6.120;2023-08-12T00:36:49;20.20;99.90
12911;DHT22;6523;49.758;6.120;2023-08-12T00:39:14;20.10;99.90
12911;DHT22;6523;49.758;6.120;2023-08-12T00:41:40;20.10;99.90
12911;DHT22;6523;49.758;6.120;2023-08-12T00:44:06;20.10;99.90
12911;DHT22;6523;49.758;6.120;2023-08-12T00:46:32;20.00;99.90
12911;DHT22;6523;49.758;6.120;2023-08-12T00:48:59;20.00;99.90
12911;DHT22;6523;49.758;6.120;2023-08-12T00:51:25;20.00;99.90
12911;DHT22;6523;49.758;6.120;2023-08-12T00:53:50;20.00;99.90
12911;DHT22;6523;49.758;6.120;2023-08-12T00:56:17;20.00;99.90
12911;DHT22;6523;49.758;6.120;2023-08-12T00:58:43;19.90;99.90
12911;DHT22;6523;49.758;6.120;2023-08-12T01:01:09;19.90;99.90
12911;DHT22;6523;49.758;6.120;2023-08-12T01:03:35;19.90;99.90
12911;DHT22;6523;49.758;6.120;2023-08-12T01:06:02;19.90;99.90
12911;DHT22;6523;49.758;6.120;2023-08-12T01:08:30;19.90;99.90
12911;DHT22;6523;49.758;6.120;2023-08-12T01:11:12;20.00;99.90
12911;DHT22;6523;49.758;6.120;2023-08-12T01:14:21;20.00;99.90
12911;DHT22;6523;49.758;6.120;2023-08-12T01:16:51;19.90;99.90
12911;DHT22;6523;49.758;6.120;2023-08-12T01:19:30;19.70;99.90
12911;DHT22;6523;49.758;6.120;2023-08-12T01:22:01;19.70;99.90
12911;DHT22;6523;49.758;6.120;2023-08-12T01:24:37;19.60;99.90
12911;DHT22;6523;49.758;6.120;2023-08-12T01:27:04;19.50;99.90
12911;DHT22;6523;49.758;6.120;2023-08-12T01:29:31;19.50;99.90
12911;DHT22;6523;49.758;6.120;2023-08-12T01:32:30;19.40;99.90
12911;DHT22;6523;49.758;6.120;2023-08-12T01:35:09;19.20;99.90
12911;DHT22;6523;49.758;6.120;2023-08-12T01:37:37;19.10;99.90
12911;DHT22;6523;49.758;6.120;2023-08-12T01:40:04;19.00;99.90
12911;DHT22;6523;49.758;6.120;2023-08-12T01:42:32;19.10;99.90
12911;DHT22;6523;49.758;6.120;2023-08-12T01:44:58;19.00;99.90
12911;DHT22;6523;49.758;6.120;2023-08-12T01:47:24;19.00;99.90
12911;DHT22;6523;49.758;6.120;2023-08-12T01:49:50;19.00;99.90
12911;DHT22;6523;49.758;6.120;2023-08-12T01:52:15;18.80;99.90
12911;DHT22;6523;49.758;6.120;2023-08-12T01:54:41;18.90;99.90
12911;DHT22;6523;49.758;6.120;2023-08-12T01:57:06;19.00;99.90
12911;DHT22;6523;49.758;6.120;2023-08-12T01:59:36;18.90;99.90
12911;DHT22;6523;49.758;6.120;2023-08-12T02:02:02;18.90;99.90
12911;DHT22;6523;49.758;6.120;2023-08-12T02:04:28;19.00;99.90
12911;DHT22;6523;49.758;6.120;2023-08-12T02:06:54;18.90;99.90
12911;DHT22;6523;49.758;6.120;2023-08-12T02:09:20;18.90;99.90
12911;DHT22;6523;49.758;6.120;2023-08-12T02:11:45;18.80;99.90
12911;DHT22;6523;49.758;6.120;2023-08-12T02:14:11;18.80;99.90
12911;DHT22;6523;49.758;6.120;2023-08-12T02:16:37;18.70;99.90
12911;DHT22;6523;49.758;6.120;2023-08-12T02:19:03;18.80;99.90
12911;DHT22;6523;49.758;6.120;2023-08-12T02:21:28;18.80;99.90
12911;DHT22;6523;49.758;6.120;2023-08-12T02:23:54;18.70;99.90
12911;DHT22;6523;49.758;6.120;2023-08-12T02:26:20;18.60;99.90
12911;DHT22;6523;49.758;6.120;2023-08-12T02:28:46;18.50;99.90
12911;DHT22;6523;49.758;6.120;2023-08-12T02:31:11;18.50;99.90
12911;DHT22;6523;49.758;6.120;2023-08-12T02:33:37;18.50;99.90
12911;DHT22;6523;49.758;6.120;2023-08-12T02:36:02;18.50;99.90
12911;DHT22;6523;49.758;6.120;2023-08-12T02:38:28;18.50;99.90
12911;DHT22;6523;49.758;6.120;2023-08-12T02:40:53;18.40;99.90
12911;DHT22;6523;49.758;6.120;2023-08-12T02:43:20;18.20;99.90
12911;DHT22;6523;49.758;6.120;2023-08-12T02:45:46;18.20;99.90
12911;DHT22;6523;49.758;6.120;2023-08-12T02:48:12;18.20;99.90
12911;DHT22;6523;49.758;6.120;2023-08-12T02:50:38;18.10;99.90
12911;DHT22;6523;49.758;6.120;2023-08-12T02:53:05;18.20;99.90
12911;DHT22;6523;49.758;6.120;2023-08-12T02:55:31;18.30;99.90
12911;DHT22;6523;49.758;6.120;2023-08-12T02:58:00;18.30;99.90
12911;DHT22;6523;49.758;6.120;2023-08-12T03:00:26;18.20;99.90
12911;DHT22;6523;49.758;6.120;2023-08-12T03:02:53;18.10;99.90
12911;DHT22;6523;49.758;6.120;2023-08-12T03:05:18;18.20;99.90
12911;DHT22;6523;49.758;6.120;2023-08-12T03:07:44;18.20;99.90
12911;DHT22;6523;49.758;6.120;2023-08-12T03:10:10;18.00;99.90
12911;DHT22;6523;49.758;6.120;2023-08-12T03:12:35;18.10;99.90
12911;DHT22;6523;49.758;6.120;2023-08-12T03:15:02;18.10;99.90
12911;DHT22;6523;49.758;6.120;2023-08-12T03:17:27;18.10;99.90
12911;DHT22;6523;49.758;6.120;2023-08-12T03:19:53;18.20;99.90
12911;DHT22;6523;49.758;6.120;2023-08-12T03:22:20;18.10;99.90
12911;DHT22;6523;49.758;6.120;2023-08-12T03:24:45;18.10;99.90
12911;DHT22;6523;49.758;6.120;2023-08-12T03:27:11;18.20;99.90
12911;DHT22;6523;49.758;6.120;2023-08-12T03:29:37;18.30;99.90
12911;DHT22;6523;49.758;6.120;2023-08-12T03:32:02;18.30;99.90
12911;DHT22;6523;49.758;6.120;2023-08-12T03:34:29;18.30;99.90
12911;DHT22;6523;49.758;6.120;2023-08-12T03:36:57;18.20;99.90
12911;DHT22;6523;49.758;6.120;2023-08-12T03:39:23;18.30;99.90
12911;DHT22;6523;49.758;6.120;2023-08-12T03:41:48;18.30;99.90
12911;DHT22;6523;49.758;6.120;2023-08-12T03:44:15;18.20;99.90
12911;DHT22;6523;49.758;6.120;2023-08-12T03:46:41;18.20;99.90
12911;DHT22;6523;49.758;6.120;2023-08-12T03:49:07;18.20;99.90
12911;DHT22;6523;49.758;6.120;2023-08-12T03:51:32;18.20;99.90
12911;DHT22;6523;49.758;6.120;2023-08-12T03:53:58;18.30;99.90
12911;DHT22;6523;49.758;6.120;2023-08-12T03:56:24;18.30;99.90
12911;DHT22;6523;49.758;6.120;2023-08-12T03:58:49;18.20;99.90
12911;DHT22;6523;49.758;6.120;2023-08-12T04:01:15;18.20;99.90
12911;DHT22;6523;49.758;6.120;2023-08-12T04:03:41;18.20;99.90
12911;DHT22;6523;49.758;6.120;2023-08-12T04:06:06;18.20;99.90
12911;DHT22;6523;49.758;6.120;2023-08-12T04:08:32;18.30;99.90
12911;DHT22;6523;49.758;6.120;2023-08-12T04:10:58;18.30;99.90
12911;DHT22;6523;49.758;6.120;2023-08-12T04:13:23;18.30;99.90
12911;DHT22;6523;49.758;6.120;2023-08-12T04:15:52;18.30;99.90
12911;DHT22;6523;49.758;6.120;2023-08-12T04:18:20;18.40;99.90
12911;DHT22;6523;49.758;6.120;2023-08-12T04:20:47;18.40;99.90
12911;DHT22;6523;49.758;6.120;2023-08-12T04:23:13;18.40;99.90
12911;DHT22;6523;49.758;6.120;2023-08-12T04:25:39;18.40;99.90
12911;DHT22;6523;49.758;6.120;2023-08-12T04:28:04;18.40;99.90
12911;DHT22;6523;49.758;6.120;2023-08-12T04:30:31;18.50;99.90
12911;DHT22;6523;49.758;6.120;2023-08-12T04:32:56;18.40;99.90
12911;DHT22;6523;49.758;6.120;2023-08-12T04:35:22;18.40;99.90
12911;DHT22;6523;49.758;6.120;2023-08-12T04:37:47;18.40;99.90
12911;DHT22;6523;49.758;6.120;2023-08-12T04:40:13;18.50;99.90
12911;DHT22;6523;49.758;6.120;2023-08-12T04:42:38;18.40;99.90
12911;DHT22;6523;49.758;6.120;2023-08-12T04:45:04;18.50;99.90
12911;DHT22;6523;49.758;6.120;2023-08-12T04:47:30;18.50;99.90
12911;DHT22;6523;49.758;6.120;2023-08-12T04:49:55;18.50;99.90
12911;DHT22;6523;49.758;6.120;2023-08-12T04:52:21;18.50;99.90
12911;DHT22;6523;49.758;6.120;2023-08-12T04:54:47;18.50;99.90
12911;DHT22;6523;49.758;6.120;2023-08-12T04:57:12;18.50;99.90
12911;DHT22;6523;49.758;6.120;2023-08-12T04:59:38;18.60;99.90
12911;DHT22;6523;49.758;6.120;2023-08-12T05:02:03;18.60;99.90
12911;DHT22;6523;49.758;6.120;2023-08-12T05:04:29;18.60;99.90
12911;DHT22;6523;49.758;6.120;2023-08-12T05:06:54;18.60;99.90
12911;DHT22;6523;49.758;6.120;2023-08-12T05:09:20;18.60;99.90
12911;DHT22;6523;49.758;6.120;2023-08-12T05:11:45;18.70;99.90
12911;DHT22;6523;49.758;6.120;2023-08-12T05:14:11;18.70;99.90
12911;DHT22;6523;49.758;6.120;2023-08-12T05:16:37;18.70;99.90
12911;DHT22;6523;49.758;6.120;2023-08-12T05:19:02;18.70;99.90
12911;DHT22;6523;49.758;6.120;2023-08-12T05:21:28;18.80;99.90
12911;DHT22;6523;49.758;6.120;2023-08-12T05:23:53;18.80;99.90
12911;DHT22;6523;49.758;6.120;2023-08-12T05:26:19;18.70;99.90
12911;DHT22;6523;49.758;6.120;2023-08-12T05:28:46;18.60;99.90
12911;DHT22;6523;49.758;6.120;2023-08-12T05:31:11;18.70;99.90
12911;DHT22;6523;49.758;6.120;2023-08-12T05:33:37;18.80;99.90
12911;DHT22;6523;49.758;6.120;2023-08-12T05:36:03;18.90;99.90
12911;DHT22;6523;49.758;6.120;2023-08-12T05:38:29;18.90;99.90
12911;DHT22;6523;49.758;6.120;2023-08-12T05:40:54;19.00;99.90
12911;DHT22;6523;49.758;6.120;2023-08-12T05:43:20;18.80;99.90
12911;DHT22;6523;49.758;6.120;2023-08-12T05:45:45;18.80;99.90
12911;DHT22;6523;49.758;6.120;2023-08-12T05:48:11;18.90;99.90
12911;DHT22;6523;49.758;6.120;2023-08-12T05:50:36;18.90;99.90
12911;DHT22;6523;49.758;6.120;2023-08-12T05:53:02;19.00;99.90
12911;DHT22;6523;49.758;6.120;2023-08-12T05:55:27;19.10;99.90
12911;DHT22;6523;49.758;6.120;2023-08-12T05:57:53;19.10;99.90
12911;DHT22;6523;49.758;6.120;2023-08-12T06:00:18;19.20;99.90
12911;DHT22;6523;49.758;6.120;2023-08-12T06:02:44;19.40;99.90
12911;DHT22;6523;49.758;6.120;2023-08-12T06:05:09;19.40;99.90
12911;DHT22;6523;49.758;6.120;2023-08-12T06:07:35;19.40;99.90
12911;DHT22;6523;49.758;6.120;2023-08-12T06:10:01;19.40;99.90
12911;DHT22;6523;49.758;6.120;2023-08-12T06:12:27;19.40;99.90
12911;DHT22;6523;49.758;6.120;2023-08-12T06:14:52;19.40;99.90
12911;DHT22;6523;49.758;6.120;2023-08-12T06:17:18;19.50;99.90
12911;DHT22;6523;49.758;6.120;2023-08-12T06:19:43;19.50;99.90
12911;DHT22;6523;49.758;6.120;2023-08-12T06:22:09;19.60;99.90
12911;DHT22;6523;49.758;6.120;2023-08-12T06:24:35;19.50;99.90
12911;DHT22;6523;49.758;6.120;2023-08-12T06:27:00;19.50;99.90
12911;DHT22;6523;49.758;6.120;2023-08-12T06:29:26;19.50;99.90
12911;DHT22;6523;49.758;6.120;2023-08-12T06:31:52;19.60;99.90
12911;DHT22;6523;49.758;6.120;2023-08-12T06:34:18;19.60;99.90
12911;DHT22;6523;49.758;6.120;2023-08-12T06:36:43;19.80;99.90
12911;DHT22;6523;49.758;6.120;2023-08-12T06:39:09;19.90;99.90
12911;DHT22;6523;49.758;6.120;2023-08-12T06:41:34;19.90;99.90
12911;DHT22;6523;49.758;6.120;2023-08-12T06:44:00;20.10;99.90
12911;DHT22;6523;49.758;6.120;2023-08-12T06:46:26;20.20;99.90
12911;DHT22;6523;49.758;6.120;2023-08-12T06:48:52;20.40;99.90
12911;DHT22;6523;49.758;6.120;2023-08-12T06:51:17;20.40;99.90
12911;DHT22;6523;49.758;6.120;2023-08-12T06:53:43;20.50;99.90
12911;DHT22;6523;49.758;6.120;2023-08-12T06:56:08;20.50;99.90
12911;DHT22;6523;49.758;6.120;2023-08-12T06:58:34;20.60;99.90
12911;DHT22;6523;49.758;6.120;2023-08-12T07:01:00;20.50;99.90
12911;DHT22;6523;49.758;6.120;2023-08-12T07:03:25;20.80;99.90
12911;DHT22;6523;49.758;6.120;2023-08-12T07:05:53;20.70;99.90
12911;DHT22;6523;49.758;6.120;2023-08-12T07:08:18;20.80;99.90
12911;DHT22;6523;49.758;6.120;2023-08-12T07:10:44;20.80;99.90
12911;DHT22;6523;49.758;6.120;2023-08-12T07:13:10;20.90;99.90
12911;DHT22;6523;49.758;6.120;2023-08-12T07:15:35;20.90;99.90
12911;DHT22;6523;49.758;6.120;2023-08-12T07:18:01;20.70;99.90
12911;DHT22;6523;49.758;6.120;2023-08-12T07:20:27;20.80;99.90
12911;DHT22;6523;49.758;6.120;2023-08-12T07:22:52;20.70;99.90
12911;DHT22;6523;49.758;6.120;2023-08-12T07:25:18;20.60;99.90
12911;DHT22;6523;49.758;6.120;2023-08-12T07:27:43;20.80;99.90
12911;DHT22;6523;49.758;6.120;2023-08-12T07:30:09;21.10;99.90
12911;DHT22;6523;49.758;6.120;2023-08-12T07:32:36;21.00;99.90
12911;DHT22;6523;49.758;6.120;2023-08-12T07:35:03;21.00;99.90
12911;DHT22;6523;49.758;6.120;2023-08-12T07:37:29;21.00;99.90
12911;DHT22;6523;49.758;6.120;2023-08-12T07:39:54;21.10;99.90
12911;DHT22;6523;49.758;6.120;2023-08-12T07:42:20;20.90;99.90
12911;DHT22;6523;49.758;6.120;2023-08-12T07:44:46;21.10;99.90
12911;DHT22;6523;49.758;6.120;2023-08-12T07:47:11;20.90;99.90
12911;DHT22;6523;49.758;6.120;2023-08-12T07:49:37;20.90;99.90
12911;DHT22;6523;49.758;6.120;2023-08-12T07:52:03;21.10;99.90
12911;DHT22;6523;49.758;6.120;2023-08-12T07:54:29;21.10;99.90
12911;DHT22;6523;49.758;6.120;2023-08-12T07:56:54;21.00;99.90
12911;DHT22;6523;49.758;6.120;2023-08-12T07:59:20;21.00;99.90
12911;DHT22;6523;49.758;6.120;2023-08-12T08:01:46;21.00;99.90
12911;DHT22;6523;49.758;6.120;2023-08-12T08:04:11;21.10;99.90
12911;DHT22;6523;49.758;6.120;2023-08-12T08:06:37;21.20;99.90
12911;DHT22;6523;49.758;6.120;2023-08-12T08:09:03;21.20;99.90
12911;DHT22;6523;49.758;6.120;2023-08-12T08:11:29;21.30;99.90
12911;DHT22;6523;49.758;6.120;2023-08-12T08:13:55;21.40;99.90
12911;DHT22;6523;49.758;6.120;2023-08-12T08:16:21;21.30;99.90
12911;DHT22;6523;49.758;6.120;2023-08-12T08:18:47;21.30;99.90
12911;DHT22;6523;49.758;6.120;2023-08-12T08:21:13;21.30;99.90
12911;DHT22;6523;49.758;6.120;2023-08-12T08:23:40;21.20;99.90
12911;DHT22;6523;49.758;6.120;2023-08-12T08:26:06;21.20;99.90
12911;DHT22;6523;49.758;6.120;2023-08-12T08:28:32;21.20;99.90
12911;DHT22;6523;49.758;6.120;2023-08-12T08:30:58;21.00;99.90
12911;DHT22;6523;49.758;6.120;2023-08-12T08:33:24;21.00;99.90
12911;DHT22;6523;49.758;6.120;2023-08-12T08:35:50;21.00;99.90
12911;DHT22;6523;49.758;6.120;2023-08-12T08:38:15;21.20;99.90
12911;DHT22;6523;49.758;6.120;2023-08-12T08:40:42;21.30;99.90
12911;DHT22;6523;49.758;6.120;2023-08-12T08:43:07;21.40;99.90
12911;DHT22;6523;49.758;6.120;2023-08-12T08:45:34;21.50;99.90
12911;DHT22;6523;49.758;6.120;2023-08-12T08:48:01;21.40;99.90
12911;DHT22;6523;49.758;6.120;2023-08-12T08:50:29;21.40;99.90
12911;DHT22;6523;49.758;6.120;2023-08-12T08:52:56;21.50;99.90
12911;DHT22;6523;49.758;6.120;2023-08-12T08:55:22;21.70;99.90
12911;DHT22;6523;49.758;6.120;2023-08-12T08:57:48;21.60;99.90
12911;DHT22;6523;49.758;6.120;2023-08-12T09:00:15;21.60;99.90
12911;DHT22;6523;49.758;6.120;2023-08-12T09:02:44;21.60;99.90
12911;DHT22;6523;49.758;6.120;2023-08-12T09:05:10;21.60;99.90
12911;DHT22;6523;49.758;6.120;2023-08-12T09:07:36;21.70;99.90
12911;DHT22;6523;49.758;6.120;2023-08-12T09:10:02;21.70;99.90
12911;DHT22;6523;49.758;6.120;2023-08-12T09:12:29;21.70;99.90
12911;DHT22;6523;49.758;6.120;2023-08-12T09:14:55;21.60;99.90
12911;DHT22;6523;49.758;6.120;2023-08-12T09:17:21;21.50;99.90
12911;DHT22;6523;49.758;6.120;2023-08-12T09:19:46;21.30;99.90
12911;DHT22;6523;49.758;6.120;2023-08-12T09:22:12;21.10;99.90
12911;DHT22;6523;49.758;6.120;2023-08-12T09:24:37;21.10;99.90
12911;DHT22;6523;49.758;6.120;2023-08-12T09:27:03;21.00;99.90
12911;DHT22;6523;49.758;6.120;2023-08-12T09:29:34;20.80;99.90
12911;DHT22;6523;49.758;6.120;2023-08-12T09:32:26;20.60;99.90
12911;DHT22;6523;49.758;6.120;2023-08-12T09:34:53;20.60;99.90
12911;DHT22;6523;49.758;6.120;2023-08-12T09:37:20;20.40;99.90
12911;DHT22;6523;49.758;6.120;2023-08-12T09:39:47;20.30;99.90
12911;DHT22;6523;49.758;6.120;2023-08-12T09:42:13;20.20;99.90
12911;DHT22;6523;49.758;6.120;2023-08-12T09:44:39;20.10;99.90
12911;DHT22;6523;49.758;6.120;2023-08-12T09:47:06;19.90;99.90
12911;DHT22;6523;49.758;6.120;2023-08-12T09:49:33;19.90;99.90
12911;DHT22;6523;49.758;6.120;2023-08-12T09:52:00;19.90;99.90
12911;DHT22;6523;49.758;6.120;2023-08-12T09:54:27;20.00;99.90
12911;DHT22;6523;49.758;6.120;2023-08-12T09:56:58;20.00;99.90
12911;DHT22;6523;49.758;6.120;2023-08-12T09:59:24;20.00;99.90
12911;DHT22;6523;49.758;6.120;2023-08-12T10:01:52;20.20;99.90
12911;DHT22;6523;49.758;6.120;2023-08-12T10:04:22;20.30;99.90
12911;DHT22;6523;49.758;6.120;2023-08-12T10:06:48;20.20;99.90
12911;DHT22;6523;49.758;6.120;2023-08-12T10:09:15;20.10;99.90
12911;DHT22;6523;49.758;6.120;2023-08-12T10:11:42;20.10;99.90
12911;DHT22;6523;49.758;6.120;2023-08-12T10:14:09;20.00;99.90
12911;DHT22;6523;49.758;6.120;2023-08-12T10:16:36;20.00;99.90
12911;DHT22;6523;49.758;6.120;2023-08-12T10:19:02;20.10;99.90
12911;DHT22;6523;49.758;6.120;2023-08-12T10:21:29;20.10;99.90
12911;DHT22;6523;49.758;6.120;2023-08-12T10:23:57;20.20;99.90
12911;DHT22;6523;49.758;6.120;2023-08-12T10:26:24;20.30;99.90
12911;DHT22;6523;49.758;6.120;2023-08-12T10:28:50;20.50;99.90
12911;DHT22;6523;49.758;6.120;2023-08-12T10:31:16;20.80;99.90
12911;DHT22;6523;49.758;6.120;2023-08-12T10:33:42;20.90;99.90
12911;DHT22;6523;49.758;6.120;2023-08-12T10:36:08;21.20;99.90
12911;DHT22;6523;49.758;6.120;2023-08-12T10:38:34;21.40;99.90
12911;DHT22;6523;49.758;6.120;2023-08-12T10:41:23;21.50;99.90
12911;DHT22;6523;49.758;6.120;2023-08-12T10:43:56;21.30;99.90
12911;DHT22;6523;49.758;6.120;2023-08-12T10:49:08;21.90;99.90
12911;DHT22;6523;49.758;6.120;2023-08-12T10:51:52;22.00;99.90
12911;DHT22;6523;49.758;6.120;2023-08-12T10:54:22;21.90;99.90
12911;DHT22;6523;49.758;6.120;2023-08-12T11:02:28;22.20;99.90
12911;DHT22;6523;49.758;6.120;2023-08-12T11:04:55;22.50;99.90
12911;DHT22;6523;49.758;6.120;2023-08-12T11:07:44;22.50;99.90
12911;DHT22;6523;49.758;6.120;2023-08-12T11:10:17;22.30;99.90
12911;DHT22;6523;49.758;6.120;2023-08-12T11:12:53;22.00;99.90
12911;DHT22;6523;49.758;6.120;2023-08-12T11:15:42;21.60;99.90
12911;DHT22;6523;49.758;6.120;2023-08-12T11:18:10;21.70;99.90
12911;DHT22;6523;49.758;6.120;2023-08-12T11:20:37;21.50;99.90
12911;DHT22;6523;49.758;6.120;2023-08-12T11:23:03;21.50;99.90
12911;DHT22;6523;49.758;6.120;2023-08-12T11:25:31;21.40;99.90
12911;DHT22;6523;49.758;6.120;2023-08-12T11:27:57;21.60;99.90
12911;DHT22;6523;49.758;6.120;2023-08-12T11:30:24;21.60;99.90
12911;DHT22;6523;49.758;6.120;2023-08-12T11:32:51;21.60;99.90
12911;DHT22;6523;49.758;6.120;2023-08-12T11:35:18;21.70;99.90
12911;DHT22;6523;49.758;6.120;2023-08-12T11:37:45;21.70;99.90
12911;DHT22;6523;49.758;6.120;2023-08-12T11:40:13;21.40;99.90
12911;DHT22;6523;49.758;6.120;2023-08-12T11:42:42;21.30;99.90
12911;DHT22;6523;49.758;6.120;2023-08-12T11:45:08;21.30;99.90
12911;DHT22;6523;49.758;6.120;2023-08-12T11:47:35;21.20;99.90
12911;DHT22;6523;49.758;6.120;2023-08-12T11:50:11;21.30;99.90
12911;DHT22;6523;49.758;6.120;2023-08-12T11:52:37;21.40;99.90
12911;DHT22;6523;49.758;6.120;2023-08-12T11:55:04;21.20;99.90
12911;DHT22;6523;49.758;6.120;2023-08-12T11:57:31;21.30;99.90
12911;DHT22;6523;49.758;6.120;2023-08-12T12:00:00;21.20;99.90
12911;DHT22;6523;49.758;6.120;2023-08-12T12:02:27;21.20;99.90
12911;DHT22;6523;49.758;6.120;2023-08-12T12:04:53;21.40;99.90
12911;DHT22;6523;49.758;6.120;2023-08-12T12:07:25;21.30;99.90
12911;DHT22;6523;49.758;6.120;2023-08-12T12:09:55;21.30;99.90
12911;DHT22;6523;49.758;6.120;2023-08-12T12:12:24;21.30;99.90
12911;DHT22;6523;49.758;6.120;2023-08-12T12:14:53;21.50;99.90
12911;DHT22;6523;49.758;6.120;2023-08-12T12:17:22;21.60;99.90
12911;DHT22;6523;49.758;6.120;2023-08-12T12:19:55;21.60;99.90
12911;DHT22;6523;49.758;6.120;2023-08-12T12:22:30;21.40;99.90
12911;DHT22;6523;49.758;6.120;2023-08-12T12:25:06;21.50;99.90
12911;DHT22;6523;49.758;6.120;2023-08-12T12:27:32;21.50;99.90
12911;DHT22;6523;49.758;6.120;2023-08-12T12:29:59;21.70;99.90
12911;DHT22;6523;49.758;6.120;2023-08-12T12:32:24;21.80;99.90
12911;DHT22;6523;49.758;6.120;2023-08-12T12:34:50;21.80;99.90
12911;DHT22;6523;49.758;6.120;2023-08-12T12:37:16;21.80;99.90
12911;DHT22;6523;49.758;6.120;2023-08-12T12:39:42;21.80;99.90
12911;DHT22;6523;49.758;6.120;2023-08-12T12:42:09;21.90;99.90
12911;DHT22;6523;49.758;6.120;2023-08-12T12:44:35;21.90;99.90
12911;DHT22;6523;49.758;6.120;2023-08-12T12:47:01;22.00;99.90
12911;DHT22;6523;49.758;6.120;2023-08-12T12:49:27;21.90;99.90
12911;DHT22;6523;49.758;6.120;2023-08-12T12:51:54;21.70;99.90
12911;DHT22;6523;49.758;6.120;2023-08-12T12:54:19;21.60;99.90
12911;DHT22;6523;49.758;6.120;2023-08-12T12:56:45;21.60;99.90
12911;DHT22;6523;49.758;6.120;2023-08-12T12:59:10;21.70;99.90
12911;DHT22;6523;49.758;6.120;2023-08-12T13:01:36;21.70;99.90
12911;DHT22;6523;49.758;6.120;2023-08-12T13:04:02;21.60;99.90
12911;DHT22;6523;49.758;6.120;2023-08-12T13:06:28;21.50;99.90
12911;DHT22;6523;49.758;6.120;2023-08-12T13:08:53;21.40;99.90
12911;DHT22;6523;49.758;6.120;2023-08-12T13:11:19;21.50;99.90
12911;DHT22;6523;49.758;6.120;2023-08-12T13:13:44;21.50;99.90
12911;DHT22;6523;49.758;6.120;2023-08-12T13:16:10;21.60;99.90
12911;DHT22;6523;49.758;6.120;2023-08-12T13:18:36;22.00;99.90
12911;DHT22;6523;49.758;6.120;2023-08-12T13:21:01;22.20;99.90
12911;DHT22;6523;49.758;6.120;2023-08-12T13:23:27;22.10;99.90
12911;DHT22;6523;49.758;6.120;2023-08-12T13:25:52;21.90;99.90
12911;DHT22;6523;49.758;6.120;2023-08-12T13:28:18;21.80;99.90
12911;DHT22;6523;49.758;6.120;2023-08-12T13:30:45;21.90;99.90
12911;DHT22;6523;49.758;6.120;2023-08-12T13:33:11;22.00;99.90
12911;DHT22;6523;49.758;6.120;2023-08-12T13:35:36;22.10;99.90
12911;DHT22;6523;49.758;6.120;2023-08-12T13:38:02;22.10;99.90
12911;DHT22;6523;49.758;6.120;2023-08-12T13:40:28;22.20;99.90
12911;DHT22;6523;49.758;6.120;2023-08-12T13:42:53;22.20;99.90
12911;DHT22;6523;49.758;6.120;2023-08-12T13:45:19;22.10;99.90
12911;DHT22;6523;49.758;6.120;2023-08-12T13:47:44;22.00;99.90
12911;DHT22;6523;49.758;6.120;2023-08-12T13:50:10;22.10;99.90
12911;DHT22;6523;49.758;6.120;2023-08-12T13:52:36;22.30;99.90
12911;DHT22;6523;49.758;6.120;2023-08-12T13:55:02;22.40;99.90
12911;DHT22;6523;49.758;6.120;2023-08-12T13:57:28;22.50;99.90
12911;DHT22;6523;49.758;6.120;2023-08-12T13:59:55;22.90;99.90
12911;DHT22;6523;49.758;6.120;2023-08-12T14:02:20;23.10;99.90
12911;DHT22;6523;49.758;6.120;2023-08-12T14:04:46;23.40;99.90
12911;DHT22;6523;49.758;6.120;2023-08-12T14:07:11;23.20;99.90
12911;DHT22;6523;49.758;6.120;2023-08-12T14:09:37;22.80;99.90
12911;DHT22;6523;49.758;6.120;2023-08-12T14:12:03;22.70;99.90
12911;DHT22;6523;49.758;6.120;2023-08-12T14:14:29;22.40;99.90
12911;DHT22;6523;49.758;6.120;2023-08-12T14:16:55;22.50;99.90
12911;DHT22;6523;49.758;6.120;2023-08-12T14:19:21;22.40;99.90
12911;DHT22;6523;49.758;6.120;2023-08-12T14:21:47;22.20;99.90
12911;DHT22;6523;49.758;6.120;2023-08-12T14:24:13;22.20;99.90
12911;DHT22;6523;49.758;6.120;2023-08-12T14:26:39;22.20;99.90
12911;DHT22;6523;49.758;6.120;2023-08-12T14:29:04;22.30;99.90
12911;DHT22;6523;49.758;6.120;2023-08-12T14:31:30;22.10;99.90
12911;DHT22;6523;49.758;6.120;2023-08-12T14:33:55;22.30;99.90
12911;DHT22;6523;49.758;6.120;2023-08-12T14:36:21;22.50;99.90
12911;DHT22;6523;49.758;6.120;2023-08-12T14:38:46;22.80;99.90
12911;DHT22;6523;49.758;6.120;2023-08-12T14:41:12;22.50;99.90
12911;DHT22;6523;49.758;6.120;2023-08-12T14:43:37;23.00;99.90
12911;DHT22;6523;49.758;6.120;2023-08-12T14:46:03;23.10;99.90
12911;DHT22;6523;49.758;6.120;2023-08-12T14:48:30;22.90;99.90
12911;DHT22;6523;49.758;6.120;2023-08-12T14:51:03;22.80;99.90
12911;DHT22;6523;49.758;6.120;2023-08-12T14:53:29;22.60;99.90
12911;DHT22;6523;49.758;6.120;2023-08-12T14:55:54;22.70;99.90
12911;DHT22;6523;49.758;6.120;2023-08-12T14:58:20;22.70;99.90
12911;DHT22;6523;49.758;6.120;2023-08-12T15:00:48;22.90;99.90
12911;DHT22;6523;49.758;6.120;2023-08-12T15:03:14;23.10;99.90
12911;DHT22;6523;49.758;6.120;2023-08-12T15:05:40;23.10;99.90
12911;DHT22;6523;49.758;6.120;2023-08-12T15:08:06;23.30;99.90
12911;DHT22;6523;49.758;6.120;2023-08-12T15:10:32;23.00;99.90
12911;DHT22;6523;49.758;6.120;2023-08-12T15:12:58;22.90;99.90
12911;DHT22;6523;49.758;6.120;2023-08-12T15:15:23;22.70;99.90
12911;DHT22;6523;49.758;6.120;2023-08-12T15:17:49;22.90;99.90
12911;DHT22;6523;49.758;6.120;2023-08-12T15:20:14;22.80;99.90
12911;DHT22;6523;49.758;6.120;2023-08-12T15:22:40;22.60;99.90
12911;DHT22;6523;49.758;6.120;2023-08-12T15:25:06;22.70;99.90
12911;DHT22;6523;49.758;6.120;2023-08-12T15:27:32;22.80;99.90
12911;DHT22;6523;49.758;6.120;2023-08-12T15:29:57;23.00;99.90
12911;DHT22;6523;49.758;6.120;2023-08-12T15:32:24;23.10;99.90
12911;DHT22;6523;49.758;6.120;2023-08-12T15:34:49;22.80;99.90
12911;DHT22;6523;49.758;6.120;2023-08-12T15:37:15;22.60;99.90
12911;DHT22;6523;49.758;6.120;2023-08-12T15:39:40;22.50;99.90
12911;DHT22;6523;49.758;6.120;2023-08-12T15:42:06;22.40;99.90
12911;DHT22;6523;49.758;6.120;2023-08-12T15:44:32;22.40;99.90
12911;DHT22;6523;49.758;6.120;2023-08-12T15:46:57;22.20;99.90
12911;DHT22;6523;49.758;6.120;2023-08-12T15:49:24;22.20;99.90